sensor_id;sensor_type;location;lat;lon;timestamp;pressure;altitude;pressure_sealevel;temperature;humidity
38718;BME280;24468;52.128;9.278;2023-11-21T00:00:05;100112.88;;;8.15;100.00
38718;BME280;24468;52.128;9.278;2023-11-21T00:02:36;100117.31;;;7.25;100.00
38718;BME280;24468;52.128;9.278;2023-11-21T00:05:04;100131.94;;;7.16;100.00
38718;BME280;24468;52.128;9.278;2023-11-21T00:07:30;100123.44;;;7.28;100.00
38718;BME280;24468;52.128;9.278;2023-11-21T00:09:55;100128.50;;;7.36;100.00
38718;BME280;24468;52.128;9.278;2023-11-21T00:12:21;100125.47;;;7.22;100.00
38718;BME280;24468;52.128;9.278;2023-11-21T00:14:47;100124.31;;;7.52;100.00
38718;BME280;24468;52.128;9.278;2023-11-21T00:17:12;100121.38;;;7.58;100.00
38718;BME280;24468;52.128;9.278;2023-11-21T00:19:38;100128.03;;;7.72;100.00
38718;BME280;24468;52.128;9.278;2023-11-21T00:22:03;100131.75;;;7.68;100.00
38718;BME280;24468;52.128;9.278;2023-11-21T00:24:29;100125.03;;;7.79;100.00
38718;BME280;24468;52.128;9.278;2023-11-21T00:26:54;100117.69;;;7.85;100.00
38718;BME280;24468;52.128;9.278;2023-11-21T00:29:20;100122.47;;;7.76;100.00
38718;BME280;24468;52.128;9.278;2023-11-21T00:31:45;100122.09;;;7.86;100.00
38718;BME280;24468;52.128;9.278;2023-11-21T00:34:14;100129.34;;;7.84;100.00
38718;BME280;24468;52.128;9.278;2023-11-21T00:36:40;100133.78;;;7.63;100.00
38718;BME280;24468;52.128;9.278;2023-11-21T00:39:05;100136.94;;;7.72;100.00
38718;BME280;24468;52.128;9.278;2023-11-21T00:41:32;100132.59;;;7.92;100.00
38718;BME280;24468;52.128;9.278;2023-11-21T00:43:57;100130.78;;;7.92;100.00
38718;BME280;24468;52.128;9.278;2023-11-21T00:46:24;100138.66;;;7.97;100.00
38718;BME280;24468;52.128;9.278;2023-11-21T00:48:52;100140.22;;;7.80;100.00
38718;BME280;24468;52.128;9.278;2023-11-21T00:51:19;100142.91;;;8.02;100.00
38718;BME280;24468;52.128;9.278;2023-11-21T00:53:45;100141.88;;;8.07;100.00
38718;BME280;24468;52.128;9.278;2023-11-21T00:56:12;100145.28;;;7.88;100.00
38718;BME280;24468;52.128;9.278;2023-11-21T00:58:37;100145.69;;;8.01;100.00
38718;BME280;24468;52.128;9.278;2023-11-21T01:01:03;100152.66;;;8.05;100.00
38718;BME280;24468;52.128;9.278;2023-11-21T01:03:29;100149.03;;;8.28;100.00
38718;BME280;24468;52.128;9.278;2023-11-21T01:05:54;100151.06;;;8.23;100.00
38718;BME280;24468;52.128;9.278;2023-11-21T01:08:20;100157.66;;;8.36;100.00
38718;BME280;24468;52.128;9.278;2023-11-21T01:10:45;100155.91;;;8.57;100.00
38718;BME280;24468;52.128;9.278;2023-11-21T01:13:11;100159.63;;;8.55;100.00
38718;BME280;24468;52.128;9.278;2023-11-21T01:15:36;100156.47;;;8.65;100.00
38718;BME280;24468;52.128;9.278;2023-11-21T01:18:02;100155.78;;;8.38;100.00
38718;BME280;24468;52.128;9.278;2023-11-21T01:20:28;100158.59;;;8.57;100.00
38718;BME280;24468;52.128;9.278;2023-11-21T01:22:54;100167.19;;;8.67;100.00
38718;BME280;24468;52.128;9.278;2023-11-21T01:25:20;100174.88;;;8.75;100.00
38718;BME280;24468;52.128;9.278;2023-11-21T01:27:46;100170.31;;;8.56;100.00
38718;BME280;24468;52.128;9.278;2023-11-21T01:30:12;100167.31;;;8.64;100.00
38718;BME280;24468;52.128;9.278;2023-11-21T01:32:38;100169.09;;;8.63;100.00
38718;BME280;24468;52.128;9.278;2023-11-21T01:35:05;100175.31;;;8.43;100.00
38718;BME280;24468;52.128;9.278;2023-11-21T01:37:32;100169.81;;;8.46;100.00
38718;BME280;24468;52.128;9.278;2023-11-21T01:39:59;100169.88;;;8.67;100.00
38718;BME280;24468;52.128;9.278;2023-11-21T01:42:26;100172.09;;;8.78;100.00
38718;BME280;24468;52.128;9.278;2023-11-21T01:44:52;100176.16;;;8.66;100.00
38718;BME280;24468;52.128;9.278;2023-11-21T01:47:19;100171.50;;;8.49;100.00
38718;BME280;24468;52.128;9.278;2023-11-21T01:49:46;100176.28;;;8.63;100.00
38718;BME280;24468;52.128;9.278;2023-11-21T01:52:13;100178.19;;;8.39;100.00
38718;BME280;24468;52.128;9.278;2023-11-21T01:54:41;100172.88;;;8.59;100.00
38718;BME280;24468;52.128;9.278;2023-11-21T01:57:07;100171.56;;;8.70;100.00
38718;BME280;24468;52.128;9.278;2023-11-21T01:59:41;100172.41;;;8.70;100.00
38718;BME280;24468;52.128;9.278;2023-11-21T02:02:08;100171.16;;;8.79;100.00
38718;BME280;24468;52.128;9.278;2023-11-21T02:04:35;100167.72;;;8.96;100.00
38718;BME280;24468;52.128;9.278;2023-11-21T02:07:04;100179.97;;;9.03;100.00
38718;BME280;24468;52.128;9.278;2023-11-21T02:09:33;100166.31;;;8.87;100.00
38718;BME280;24468;52.128;9.278;2023-11-21T02:12:00;100174.44;;;8.65;100.00
38718;BME280;24468;52.128;9.278;2023-11-21T02:14:27;100174.09;;;8.73;100.00
38718;BME280;24468;52.128;9.278;2023-11-21T02:16:54;100177.00;;;8.88;100.00
38718;BME280;24468;52.128;9.278;2023-11-21T02:19:21;100177.94;;;8.67;100.00
38718;BME280;24468;52.128;9.278;2023-11-21T02:21:57;100191.94;;;8.31;100.00
38718;BME280;24468;52.128;9.278;2023-11-21T02:24:32;100181.13;;;8.55;100.00
38718;BME280;24468;52.128;9.278;2023-11-21T02:26:58;100173.88;;;8.77;100.00
38718;BME280;24468;52.128;9.278;2023-11-21T02:29:23;100191.47;;;8.86;100.00
38718;BME280;24468;52.128;9.278;2023-11-21T02:31:54;100196.78;;;8.87;100.00
38718;BME280;24468;52.128;9.278;2023-11-21T02:34:21;100193.00;;;9.12;100.00
38718;BME280;24468;52.128;9.278;2023-11-21T02:36:47;100187.34;;;9.18;100.00
38718;BME280;24468;52.128;9.278;2023-11-21T02:39:16;100192.47;;;9.04;100.00
38718;BME280;24468;52.128;9.278;2023-11-21T02:41:43;100196.34;;;8.76;100.00
38718;BME280;24468;52.128;9.278;2023-11-21T02:44:09;100186.69;;;8.93;100.00
38718;BME280;24468;52.128;9.278;2023-11-21T02:46:36;100203.38;;;9.01;100.00
38718;BME280;24468;52.128;9.278;2023-11-21T02:49:03;100196.09;;;9.23;100.00
38718;BME280;24468;52.128;9.278;2023-11-21T02:51:30;100199.53;;;9.06;100.00
38718;BME280;24468;52.128;9.278;2023-11-21T02:53:56;100197.38;;;9.35;100.00
38718;BME280;24468;52.128;9.278;2023-11-21T02:56:26;100201.75;;;9.17;100.00
38718;BME280;24468;52.128;9.278;2023-11-21T02:58:52;100192.25;;;9.29;100.00
38718;BME280;24468;52.128;9.278;2023-11-21T03:01:18;100207.69;;;9.25;100.00
38718;BME280;24468;52.128;9.278;2023-11-21T03:03:43;100205.00;;;9.25;100.00
38718;BME280;24468;52.128;9.278;2023-11-21T03:06:09;100210.25;;;9.28;100.00
38718;BME280;24468;52.128;9.278;2023-11-21T03:08:34;100207.47;;;9.50;100.00
38718;BME280;24468;52.128;9.278;2023-11-21T03:11:01;100208.22;;;9.92;100.00
38718;BME280;24468;52.128;9.278;2023-11-21T03:13:28;100208.81;;;9.79;100.00
38718;BME280;24468;52.128;9.278;2023-11-21T03:15:54;100210.63;;;9.40;100.00
38718;BME280;24468;52.128;9.278;2023-11-21T03:18:20;100219.19;;;9.29;100.00
38718;BME280;24468;52.128;9.278;2023-11-21T03:20:47;100203.50;;;11.58;100.00
38718;BME280;24468;52.128;9.278;2023-11-21T03:23:13;100208.78;;;11.60;100.00
38718;BME280;24468;52.128;9.278;2023-11-21T03:25:38;100210.06;;;11.70;100.00
38718;BME280;24468;52.128;9.278;2023-11-21T03:28:04;100209.97;;;11.38;100.00
38718;BME280;24468;52.128;9.278;2023-11-21T03:30:30;100208.16;;;10.86;100.00
38718;BME280;24468;52.128;9.278;2023-11-21T03:32:56;100220.56;;;10.72;100.00
38718;BME280;24468;52.128;9.278;2023-11-21T03:35:22;100224.69;;;10.61;100.00
38718;BME280;24468;52.128;9.278;2023-11-21T03:37:47;100229.63;;;10.34;100.00
38718;BME280;24468;52.128;9.278;2023-11-21T03:40:13;100237.75;;;10.14;100.00
38718;BME280;24468;52.128;9.278;2023-11-21T03:42:39;100231.25;;;9.99;100.00
38718;BME280;24468;52.128;9.278;2023-11-21T03:45:06;100232.06;;;10.01;100.00
38718;BME280;24468;52.128;9.278;2023-11-21T03:47:32;100226.53;;;9.85;100.00
38718;BME280;24468;52.128;9.278;2023-11-21T03:49:57;100229.88;;;9.51;100.00
38718;BME280;24468;52.128;9.278;2023-11-21T03:52:24;100235.94;;;9.15;100.00
38718;BME280;24468;52.128;9.278;2023-11-21T03:54:49;100242.00;;;9.00;100.00
38718;BME280;24468;52.128;9.278;2023-11-21T03:57:15;100245.69;;;8.97;100.00
38718;BME280;24468;52.128;9.278;2023-11-21T03:59:42;100238.56;;;9.17;100.00
38718;BME280;24468;52.128;9.278;2023-11-21T04:02:08;100248.59;;;9.33;100.00
38718;BME280;24468;52.128;9.278;2023-11-21T04:04:35;100243.94;;;9.37;100.00
38718;BME280;24468;52.128;9.278;2023-11-21T04:07:00;100236.88;;;9.55;100.00
38718;BME280;24468;52.128;9.278;2023-11-21T04:09:26;100236.31;;;9.67;100.00
38718;BME280;24468;52.128;9.278;2023-11-21T04:11:52;100246.06;;;9.70;100.00
38718;BME280;24468;52.128;9.278;2023-11-21T04:14:18;100244.81;;;9.58;100.00
38718;BME280;24468;52.128;9.278;2023-11-21T04:16:44;100246.59;;;9.78;100.00
38718;BME280;24468;52.128;9.278;2023-11-21T04:19:10;100247.31;;;9.82;100.00
38718;BME280;24468;52.128;9.278;2023-11-21T04:21:37;100252.66;;;9.83;100.00
38718;BME280;24468;52.128;9.278;2023-11-21T04:24:04;100256.88;;;9.89;100.00
38718;BME280;24468;52.128;9.278;2023-11-21T04:26:29;100262.63;;;9.81;100.00
38718;BME280;24468;52.128;9.278;2023-11-21T04:28:55;100267.81;;;9.86;100.00
38718;BME280;24468;52.128;9.278;2023-11-21T04:31:20;100265.69;;;9.92;100.00
38718;BME280;24468;52.128;9.278;2023-11-21T04:33:46;100266.72;;;9.90;100.00
38718;BME280;24468;52.128;9.278;2023-11-21T04:36:12;100265.84;;;9.89;100.00
38718;BME280;24468;52.128;9.278;2023-11-21T04:38:37;100278.97;;;9.97;100.00
38718;BME280;24468;52.128;9.278;2023-11-21T04:41:03;100273.06;;;9.89;100.00
38718;BME280;24468;52.128;9.278;2023-11-21T04:43:28;100275.06;;;9.84;100.00
38718;BME280;24468;52.128;9.278;2023-11-21T04:45:55;100284.31;;;9.78;100.00
38718;BME280;24468;52.128;9.278;2023-11-21T04:48:20;100289.19;;;9.70;100.00
38718;BME280;24468;52.128;9.278;2023-11-21T04:50:46;100286.44;;;9.71;100.00
38718;BME280;24468;52.128;9.278;2023-11-21T04:53:11;100290.81;;;9.74;100.00
38718;BME280;24468;52.128;9.278;2023-11-21T04:55:40;100285.41;;;9.74;100.00
38718;BME280;24468;52.128;9.278;2023-11-21T04:58:06;100296.19;;;9.74;100.00
38718;BME280;24468;52.128;9.278;2023-11-21T05:00:32;100295.03;;;9.79;100.00
38718;BME280;24468;52.128;9.278;2023-11-21T05:02:57;100303.31;;;9.75;100.00
38718;BME280;24468;52.128;9.278;2023-11-21T05:05:23;100301.16;;;9.83;100.00
38718;BME280;24468;52.128;9.278;2023-11-21T05:07:49;100296.28;;;9.91;100.00
38718;BME280;24468;52.128;9.278;2023-11-21T05:10:15;100289.41;;;10.05;100.00
38718;BME280;24468;52.128;9.278;2023-11-21T05:12:41;100291.38;;;10.01;100.00
38718;BME280;24468;52.128;9.278;2023-11-21T05:15:08;100300.09;;;10.06;100.00
38718;BME280;24468;52.128;9.278;2023-11-21T05:17:37;100303.25;;;10.16;100.00
38718;BME280;24468;52.128;9.278;2023-11-21T05:20:05;100298.94;;;10.12;100.00
38718;BME280;24468;52.128;9.278;2023-11-21T05:22:34;100305.28;;;10.11;100.00
38718;BME280;24468;52.128;9.278;2023-11-21T05:25:00;100304.69;;;10.04;100.00
38718;BME280;24468;52.128;9.278;2023-11-21T05:27:26;100314.47;;;10.25;100.00
38718;BME280;24468;52.128;9.278;2023-11-21T05:29:51;100309.75;;;10.31;100.00
38718;BME280;24468;52.128;9.278;2023-11-21T05:32:17;100304.78;;;10.21;100.00
38718;BME280;24468;52.128;9.278;2023-11-21T05:34:43;100313.53;;;10.27;100.00
38718;BME280;24468;52.128;9.278;2023-11-21T05:37:08;100313.00;;;10.18;100.00
38718;BME280;24468;52.128;9.278;2023-11-21T05:39:34;100317.94;;;10.29;100.00
38718;BME280;24468;52.128;9.278;2023-11-21T05:42:01;100319.84;;;10.27;100.00
38718;BME280;24468;52.128;9.278;2023-11-21T05:44:26;100313.75;;;10.22;100.00
38718;BME280;24468;52.128;9.278;2023-11-21T05:46:52;100312.59;;;10.28;100.00
38718;BME280;24468;52.128;9.278;2023-11-21T05:49:18;100322.19;;;10.14;100.00
38718;BME280;24468;52.128;9.278;2023-11-21T05:51:47;100322.59;;;10.05;100.00
38718;BME280;24468;52.128;9.278;2023-11-21T05:54:13;100332.44;;;10.06;100.00
38718;BME280;24468;52.128;9.278;2023-11-21T05:56:38;100340.66;;;10.03;100.00
38718;BME280;24468;52.128;9.278;2023-11-21T05:59:04;100335.63;;;9.95;100.00
38718;BME280;24468;52.128;9.278;2023-11-21T06:01:29;100338.91;;;10.02;100.00
38718;BME280;24468;52.128;9.278;2023-11-21T06:03:55;100339.06;;;9.99;100.00
38718;BME280;24468;52.128;9.278;2023-11-21T06:06:21;100341.66;;;10.00;100.00
38718;BME280;24468;52.128;9.278;2023-11-21T06:08:48;100339.75;;;10.04;100.00
38718;BME280;24468;52.128;9.278;2023-11-21T06:11:14;100347.78;;;9.85;100.00
38718;BME280;24468;52.128;9.278;2023-11-21T06:13:41;100349.09;;;9.95;100.00
38718;BME280;24468;52.128;9.278;2023-11-21T06:16:07;100353.84;;;9.90;100.00
38718;BME280;24468;52.128;9.278;2023-11-21T06:18:33;100357.94;;;9.78;100.00
38718;BME280;24468;52.128;9.278;2023-11-21T06:20:58;100365.75;;;9.64;100.00
38718;BME280;24468;52.128;9.278;2023-11-21T06:23:26;100363.72;;;9.69;100.00
38718;BME280;24468;52.128;9.278;2023-11-21T06:25:51;100363.53;;;9.74;100.00
38718;BME280;24468;52.128;9.278;2023-11-21T06:28:18;100364.94;;;9.83;100.00
38718;BME280;24468;52.128;9.278;2023-11-21T06:30:43;100373.84;;;9.85;100.00
38718;BME280;24468;52.128;9.278;2023-11-21T06:33:10;100380.03;;;9.66;100.00
38718;BME280;24468;52.128;9.278;2023-11-21T06:35:36;100382.84;;;9.63;100.00
38718;BME280;24468;52.128;9.278;2023-11-21T06:38:02;100388.94;;;9.68;100.00
38718;BME280;24468;52.128;9.278;2023-11-21T06:40:28;100395.81;;;9.53;100.00
38718;BME280;24468;52.128;9.278;2023-11-21T06:42:53;100394.56;;;9.62;100.00
38718;BME280;24468;52.128;9.278;2023-11-21T06:45:19;100391.06;;;9.60;100.00
38718;BME280;24468;52.128;9.278;2023-11-21T06:47:45;100397.25;;;9.62;100.00
38718;BME280;24468;52.128;9.278;2023-11-21T06:50:11;100407.88;;;9.65;100.00
38718;BME280;24468;52.128;9.278;2023-11-21T06:52:37;100414.19;;;9.66;100.00
38718;BME280;24468;52.128;9.278;2023-11-21T06:55:02;100418.09;;;9.57;100.00
38718;BME280;24468;52.128;9.278;2023-11-21T06:57:28;100416.25;;;9.59;100.00
38718;BME280;24468;52.128;9.278;2023-11-21T06:59:54;100420.16;;;9.52;100.00
38718;BME280;24468;52.128;9.278;2023-11-21T07:02:19;100436.19;;;9.55;100.00
38718;BME280;24468;52.128;9.278;2023-11-21T07:04:46;100432.47;;;9.57;100.00
38718;BME280;24468;52.128;9.278;2023-11-21T07:07:12;100434.91;;;9.64;100.00
38718;BME280;24468;52.128;9.278;2023-11-21T07:09:38;100438.97;;;9.74;100.00
38718;BME280;24468;52.128;9.278;2023-11-21T07:12:04;100440.47;;;9.59;100.00
38718;BME280;24468;52.128;9.278;2023-11-21T07:14:34;100445.81;;;9.61;100.00
38718;BME280;24468;52.128;9.278;2023-11-21T07:16:59;100453.81;;;9.62;100.00
38718;BME280;24468;52.128;9.278;2023-11-21T07:19:25;100445.69;;;9.64;100.00
38718;BME280;24468;52.128;9.278;2023-11-21T07:21:50;100443.28;;;9.78;100.00
38718;BME280;24468;52.128;9.278;2023-11-21T07:24:17;100447.53;;;9.84;100.00
38718;BME280;24468;52.128;9.278;2023-11-21T07:26:42;100448.34;;;9.86;100.00
38718;BME280;24468;52.128;9.278;2023-11-21T07:29:08;100455.00;;;9.77;100.00
38718;BME280;24468;52.128;9.278;2023-11-21T07:31:34;100462.41;;;9.72;100.00
38718;BME280;24468;52.128;9.278;2023-11-21T07:34:00;100459.13;;;9.86;100.00
38718;BME280;24468;52.128;9.278;2023-11-21T07:36:26;100461.66;;;9.68;100.00
38718;BME280;24468;52.128;9.278;2023-11-21T07:38:52;100472.06;;;9.55;100.00
38718;BME280;24468;52.128;9.278;2023-11-21T07:41:18;100480.31;;;9.73;100.00
38718;BME280;24468;52.128;9.278;2023-11-21T07:43:45;100480.25;;;9.74;100.00
38718;BME280;24468;52.128;9.278;2023-11-21T07:46:11;100480.81;;;9.61;100.00
38718;BME280;24468;52.128;9.278;2023-11-21T07:48:39;100482.22;;;9.71;100.00
38718;BME280;24468;52.128;9.278;2023-11-21T07:51:05;100484.56;;;9.78;100.00
38718;BME280;24468;52.128;9.278;2023-11-21T07:53:32;100486.81;;;9.89;100.00
38718;BME280;24468;52.128;9.278;2023-11-21T07:56:02;100485.06;;;9.88;100.00
38718;BME280;24468;52.128;9.278;2023-11-21T07:58:28;100501.16;;;9.90;100.00
38718;BME280;24468;52.128;9.278;2023-11-21T08:00:53;100498.72;;;9.84;100.00
38718;BME280;24468;52.128;9.278;2023-11-21T08:03:19;100499.28;;;9.92;100.00
38718;BME280;24468;52.128;9.278;2023-11-21T08:05:45;100502.38;;;10.03;100.00
38718;BME280;24468;52.128;9.278;2023-11-21T08:08:10;100503.38;;;10.00;100.00
38718;BME280;24468;52.128;9.278;2023-11-21T08:10:36;100510.56;;;10.01;100.00
38718;BME280;24468;52.128;9.278;2023-11-21T08:13:03;100517.22;;;10.13;100.00
38718;BME280;24468;52.128;9.278;2023-11-21T08:15:29;100524.13;;;10.20;100.00
38718;BME280;24468;52.128;9.278;2023-11-21T08:17:55;100526.91;;;10.17;100.00
38718;BME280;24468;52.128;9.278;2023-11-21T08:20:20;100524.78;;;10.25;100.00
38718;BME280;24468;52.128;9.278;2023-11-21T08:22:48;100530.69;;;10.13;100.00
38718;BME280;24468;52.128;9.278;2023-11-21T08:25:14;100531.13;;;10.24;100.00
38718;BME280;24468;52.128;9.278;2023-11-21T08:27:39;100539.72;;;10.34;100.00
38718;BME280;24468;52.128;9.278;2023-11-21T08:30:06;100535.47;;;10.29;100.00
38718;BME280;24468;52.128;9.278;2023-11-21T08:32:32;100537.38;;;10.25;100.00
38718;BME280;24468;52.128;9.278;2023-11-21T08:34:59;100542.38;;;9.92;100.00
38718;BME280;24468;52.128;9.278;2023-11-21T08:37:25;100538.34;;;10.24;100.00
38718;BME280;24468;52.128;9.278;2023-11-21T08:39:52;100532.34;;;9.95;100.00
38718;BME280;24468;52.128;9.278;2023-11-21T08:42:19;100539.50;;;9.96;100.00
38718;BME280;24468;52.128;9.278;2023-11-21T08:44:45;100545.22;;;9.89;100.00
38718;BME280;24468;52.128;9.278;2023-11-21T08:47:11;100544.03;;;9.74;100.00
38718;BME280;24468;52.128;9.278;2023-11-21T08:49:37;100549.03;;;9.83;100.00
38718;BME280;24468;52.128;9.278;2023-11-21T08:52:03;100547.16;;;9.85;100.00
38718;BME280;24468;52.128;9.278;2023-11-21T08:54:31;100567.13;;;9.35;100.00
38718;BME280;24468;52.128;9.278;2023-11-21T08:56:56;100571.88;;;9.05;100.00
38718;BME280;24468;52.128;9.278;2023-11-21T08:59:24;100573.44;;;9.11;100.00
38718;BME280;24468;52.128;9.278;2023-11-21T09:01:50;100589.94;;;8.77;100.00
38718;BME280;24468;52.128;9.278;2023-11-21T09:04:16;100589.81;;;8.80;100.00
38718;BME280;24468;52.128;9.278;2023-11-21T09:06:41;100599.28;;;8.92;100.00
38718;BME280;24468;52.128;9.278;2023-11-21T09:09:07;100597.75;;;8.84;100.00
38718;BME280;24468;52.128;9.278;2023-11-21T09:11:36;100603.34;;;8.78;100.00
38718;BME280;24468;52.128;9.278;2023-11-21T09:14:03;100603.25;;;9.05;100.00
38718;BME280;24468;52.128;9.278;2023-11-21T09:16:31;100602.09;;;9.12;100.00
38718;BME280;24468;52.128;9.278;2023-11-21T09:18:57;100619.00;;;8.92;100.00
38718;BME280;24468;52.128;9.278;2023-11-21T09:21:22;100612.75;;;9.15;100.00
38718;BME280;24468;52.128;9.278;2023-11-21T09:23:49;100617.56;;;8.82;100.00
38718;BME280;24468;52.128;9.278;2023-11-21T09:26:14;100633.81;;;8.79;100.00
38718;BME280;24468;52.128;9.278;2023-11-21T09:28:43;100643.19;;;8.67;100.00
38718;BME280;24468;52.128;9.278;2023-11-21T09:31:11;100642.91;;;8.75;100.00
38718;BME280;24468;52.128;9.278;2023-11-21T09:33:37;100653.34;;;9.09;100.00
38718;BME280;24468;52.128;9.278;2023-11-21T09:36:04;100646.94;;;9.37;100.00
38718;BME280;24468;52.128;9.278;2023-11-21T09:38:31;100656.81;;;9.12;100.00
38718;BME280;24468;52.128;9.278;2023-11-21T09:40:57;100664.94;;;9.11;100.00
38718;BME280;24468;52.128;9.278;2023-11-21T09:43:24;100658.91;;;9.04;100.00
38718;BME280;24468;52.128;9.278;2023-11-21T09:45:59;100673.28;;;9.03;100.00
38718;BME280;24468;52.128;9.278;2023-11-21T09:48:26;100671.19;;;9.37;100.00
38718;BME280;24468;52.128;9.278;2023-11-21T09:50:53;100670.81;;;9.22;100.00
38718;BME280;24468;52.128;9.278;2023-11-21T09:53:22;100682.31;;;9.02;100.00
38718;BME280;24468;52.128;9.278;2023-11-21T09:55:52;100684.28;;;8.97;100.00
38718;BME280;24468;52.128;9.278;2023-11-21T09:58:19;100686.41;;;8.87;100.00
38718;BME280;24468;52.128;9.278;2023-11-21T10:00:48;100692.59;;;8.64;100.00
38718;BME280;24468;52.128;9.278;2023-11-21T10:03:15;100687.34;;;8.86;100.00
38718;BME280;24468;52.128;9.278;2023-11-21T10:05:43;100696.75;;;9.25;100.00
38718;BME280;24468;52.128;9.278;2023-11-21T10:08:10;100704.16;;;9.18;100.00
38718;BME280;24468;52.128;9.278;2023-11-21T10:10:37;100702.78;;;9.31;100.00
38718;BME280;24468;52.128;9.278;2023-11-21T10:13:05;100706.72;;;9.70;100.00
38718;BME280;24468;52.128;9.278;2023-11-21T10:15:34;100704.16;;;9.67;100.00
38718;BME280;24468;52.128;9.278;2023-11-21T10:18:04;100711.56;;;9.37;100.00
38718;BME280;24468;52.128;9.278;2023-11-21T10:20:32;100710.25;;;9.23;100.00
38718;BME280;24468;52.128;9.278;2023-11-21T10:23:03;100711.44;;;9.40;100.00
38718;BME280;24468;52.128;9.278;2023-11-21T10:25:32;100718.50;;;9.67;100.00
38718;BME280;24468;52.128;9.278;2023-11-21T10:28:00;100721.25;;;9.66;100.00
38718;BME280;24468;52.128;9.278;2023-11-21T10:30:34;100720.91;;;9.26;100.00
38718;BME280;24468;52.128;9.278;2023-11-21T10:33:07;100717.81;;;9.37;100.00
38718;BME280;24468;52.128;9.278;2023-11-21T10:35:47;100721.78;;;9.02;100.00
38718;BME280;24468;52.128;9.278;2023-11-21T10:38:19;100731.78;;;8.72;100.00
38718;BME280;24468;52.128;9.278;2023-11-21T10:40:48;100732.72;;;8.97;100.00
38718;BME280;24468;52.128;9.278;2023-11-21T10:43:15;100737.75;;;8.81;100.00
38718;BME280;24468;52.128;9.278;2023-11-21T10:45:41;100738.88;;;8.74;100.00
38718;BME280;24468;52.128;9.278;2023-11-21T10:48:09;100745.78;;;8.55;100.00
38718;BME280;24468;52.128;9.278;2023-11-21T10:50:36;100753.44;;;8.40;100.00
38718;BME280;24468;52.128;9.278;2023-11-21T10:53:04;100758.44;;;8.23;100.00
38718;BME280;24468;52.128;9.278;2023-11-21T10:55:31;100765.47;;;7.97;100.00
38718;BME280;24468;52.128;9.278;2023-11-21T10:58:00;100763.72;;;7.96;100.00
38718;BME280;24468;52.128;9.278;2023-11-21T11:00:28;100773.06;;;7.83;100.00
38718;BME280;24468;52.128;9.278;2023-11-21T11:02:55;100768.44;;;7.88;100.00
38718;BME280;24468;52.128;9.278;2023-11-21T11:05:23;100769.63;;;8.09;100.00
38718;BME280;24468;52.128;9.278;2023-11-21T11:07:56;100778.56;;;8.10;100.00
38718;BME280;24468;52.128;9.278;2023-11-21T11:10:26;100784.19;;;8.30;100.00
38718;BME280;24468;52.128;9.278;2023-11-21T11:12:54;100778.47;;;8.13;100.00
38718;BME280;24468;52.128;9.278;2023-11-21T11:15:21;100777.63;;;8.11;100.00
38718;BME280;24468;52.128;9.278;2023-11-21T11:17:47;100778.16;;;8.22;100.00
38718;BME280;24468;52.128;9.278;2023-11-21T11:20:15;100774.28;;;8.32;100.00
38718;BME280;24468;52.128;9.278;2023-11-21T11:23:13;100780.72;;;8.27;100.00
38718;BME280;24468;52.128;9.278;2023-11-21T11:32:22;100791.84;;;8.44;100.00
38718;BME280;24468;52.128;9.278;2023-11-21T11:35:33;100797.88;;;8.80;100.00
38718;BME280;24468;52.128;9.278;2023-11-21T11:37:59;100799.41;;;8.87;100.00
38718;BME280;24468;52.128;9.278;2023-11-21T11:40:44;100800.28;;;8.88;100.00
38718;BME280;24468;52.128;9.278;2023-11-21T11:43:10;100804.28;;;9.03;100.00
38718;BME280;24468;52.128;9.278;2023-11-21T11:45:37;100802.09;;;8.87;100.00
38718;BME280;24468;52.128;9.278;2023-11-21T11:48:08;100817.63;;;8.79;100.00
38718;BME280;24468;52.128;9.278;2023-11-21T11:50:36;100817.63;;;8.79;100.00
38718;BME280;24468;52.128;9.278;2023-11-21T11:53:15;100808.97;;;8.96;100.00
38718;BME280;24468;52.128;9.278;2023-11-21T11:55:41;100825.94;;;9.00;100.00
38718;BME280;24468;52.128;9.278;2023-11-21T11:58:07;100835.16;;;8.91;100.00
38718;BME280;24468;52.128;9.278;2023-11-21T12:00:35;100828.50;;;9.03;100.00
38718;BME280;24468;52.128;9.278;2023-11-21T12:03:06;100834.97;;;9.24;100.00
38718;BME280;24468;52.128;9.278;2023-11-21T12:05:33;100830.53;;;9.48;100.00
38718;BME280;24468;52.128;9.278;2023-11-21T12:08:03;100835.94;;;9.48;100.00
38718;BME280;24468;52.128;9.278;2023-11-21T12:10:35;100830.00;;;9.63;100.00
38718;BME280;24468;52.128;9.278;2023-11-21T12:13:06;100826.25;;;9.67;100.00
38718;BME280;24468;52.128;9.278;2023-11-21T12:15:37;100828.91;;;9.69;100.00
38718;BME280;24468;52.128;9.278;2023-11-21T12:18:03;100825.03;;;9.51;100.00
38718;BME280;24468;52.128;9.278;2023-11-21T12:20:30;100828.66;;;9.25;100.00
38718;BME280;24468;52.128;9.278;2023-11-21T12:22:58;100835.75;;;9.27;100.00
38718;BME280;24468;52.128;9.278;2023-11-21T12:25:27;100839.22;;;9.31;100.00
38718;BME280;24468;52.128;9.278;2023-11-21T12:28:00;100846.31;;;9.07;100.00
38718;BME280;24468;52.128;9.278;2023-11-21T12:30:28;100846.94;;;9.15;100.00
38718;BME280;24468;52.128;9.278;2023-11-21T12:32:57;100852.97;;;8.95;100.00
38718;BME280;24468;52.128;9.278;2023-11-21T12:35:28;100859.88;;;8.76;100.00
38718;BME280;24468;52.128;9.278;2023-11-21T12:37:55;100852.81;;;8.72;100.00
38718;BME280;24468;52.128;9.278;2023-11-21T12:40:23;100863.88;;;8.90;100.00
38718;BME280;24468;52.128;9.278;2023-11-21T12:42:52;100863.56;;;8.73;100.00
38718;BME280;24468;52.128;9.278;2023-11-21T12:45:23;100861.16;;;8.92;100.00
38718;BME280;24468;52.128;9.278;2023-11-21T12:50:22;100869.66;;;8.50;100.00
38718;BME280;24468;52.128;9.278;2023-11-21T12:52:58;100876.03;;;8.76;100.00
38718;BME280;24468;52.128;9.278;2023-11-21T12:55:24;100872.75;;;8.94;100.00